createdAt,value
2023-04-23T00:00:01.835Z,32.60
2023-04-23T00:04:01.002Z,32.40
2023-04-23T00:07:28.871Z,32.50
2023-04-23T00:10:56.651Z,33.10
2023-04-23T00:14:24.495Z,31.50
2023-04-23T00:17:51.444Z,31.80
2023-04-23T00:21:18.393Z,30.90
2023-04-23T00:24:45.505Z,32.20
2023-04-23T00:28:12.489Z,31.50
2023-04-23T00:31:39.520Z,30.00
2023-04-23T00:35:07.792Z,31.50
2023-04-23T00:38:34.751Z,31.70
2023-04-23T00:42:07.080Z,32.00
2023-04-23T00:45:34.782Z,33.00
2023-04-23T00:49:03.131Z,31.80
2023-04-23T00:52:30.223Z,31.20
2023-04-23T00:55:57.908Z,32.90
2023-04-23T00:59:24.850Z,30.10
2023-04-23T01:02:53.114Z,31.10
2023-04-23T01:06:20.713Z,30.70
2023-04-23T01:09:47.758Z,32.40
2023-04-23T01:13:14.948Z,29.80
2023-04-23T01:16:42.611Z,32.80
2023-04-23T01:20:11.349Z,31.20
2023-04-23T01:23:38.292Z,31.90
2023-04-23T01:27:06.224Z,30.40
2023-04-23T01:30:34.477Z,30.90
2023-04-23T01:34:02.022Z,32.60
2023-04-23T01:37:29.296Z,30.80
2023-04-23T01:40:56.466Z,32.80
2023-04-23T01:44:23.282Z,30.10
2023-04-23T01:47:50.441Z,31.70
2023-04-23T01:51:17.718Z,30.70
2023-04-23T01:54:44.513Z,28.90
2023-04-23T01:58:11.765Z,30.20
2023-04-23T02:01:46.724Z,31.50
2023-04-23T02:05:17.062Z,31.70
2023-04-23T02:08:44.171Z,29.50
2023-04-23T02:12:11.241Z,30.20
2023-04-23T02:15:38.615Z,30.00
2023-04-23T02:19:05.987Z,29.20
2023-04-23T02:22:32.989Z,30.00
2023-04-23T02:25:59.920Z,31.00
2023-04-23T02:29:26.936Z,29.40
2023-04-23T02:32:54.269Z,30.00
2023-04-23T02:36:21.613Z,29.30
2023-04-23T02:39:48.854Z,27.80
2023-04-23T02:43:15.919Z,28.80
2023-04-23T02:46:42.831Z,29.10
2023-04-23T02:50:11.409Z,27.90
2023-04-23T02:53:38.537Z,27.20
2023-04-23T02:57:06.055Z,26.60
2023-04-23T03:00:33.448Z,28.10
2023-04-23T03:04:00.811Z,27.20
2023-04-23T03:07:27.838Z,27.30
2023-04-23T03:10:55.142Z,27.40
2023-04-23T03:14:22.645Z,28.80
2023-04-23T03:17:50.990Z,28.80
2023-04-23T03:21:17.989Z,26.70
2023-04-23T03:24:44.911Z,27.80
2023-04-23T03:28:12.011Z,26.80
2023-04-23T03:31:38.851Z,27.40
2023-04-23T03:35:09.734Z,27.20
2023-04-23T03:38:37.833Z,29.20
2023-04-23T03:42:05.528Z,27.40
2023-04-23T03:45:33.688Z,28.60
2023-04-23T03:49:01.308Z,28.70
2023-04-23T03:52:28.306Z,29.50
2023-04-23T03:55:56.875Z,30.40
2023-04-23T03:59:24.737Z,29.00
2023-04-23T04:02:53.212Z,28.00
2023-04-23T04:06:22.427Z,30.60
2023-04-23T04:09:50.299Z,30.30
2023-04-23T04:13:17.256Z,27.90
2023-04-23T04:16:44.249Z,26.50
2023-04-23T04:20:13.296Z,27.40
2023-04-23T04:23:40.454Z,26.00
2023-04-23T04:27:07.567Z,25.60
2023-04-23T04:30:35.000Z,27.00
2023-04-23T04:34:02.183Z,25.60
2023-04-23T04:37:29.230Z,24.10
2023-04-23T04:40:58.917Z,24.30
2023-04-23T04:47:52.377Z,22.80
2023-04-23T04:51:19.458Z,21.80
2023-04-23T04:54:46.313Z,21.20
2023-04-23T04:58:13.263Z,20.70
2023-04-23T05:01:40.487Z,23.00
2023-04-23T05:05:09.234Z,21.80
2023-04-23T05:08:36.268Z,20.40
2023-04-23T05:12:03.323Z,20.60
2023-04-23T05:15:30.444Z,20.20
2023-04-23T05:19:00.172Z,19.60
2023-04-23T05:25:56.022Z,19.50
2023-04-23T05:29:22.861Z,19.50
2023-04-23T05:32:49.856Z,18.30
2023-04-23T05:36:16.834Z,21.20
2023-04-23T05:39:44.478Z,18.20
2023-04-23T05:43:11.971Z,17.40
2023-04-23T05:46:38.896Z,15.80
2023-04-23T05:50:06.404Z,16.30
2023-04-23T05:53:33.433Z,16.00
2023-04-23T05:57:01.177Z,16.30
2023-04-23T06:00:28.066Z,16.20
2023-04-23T06:03:55.781Z,17.40
2023-04-23T06:07:23.255Z,16.00
2023-04-23T06:10:50.503Z,15.60
2023-04-23T06:14:17.538Z,13.00
2023-04-23T06:17:44.616Z,12.80
2023-04-23T06:21:11.904Z,13.20
2023-04-23T06:24:38.962Z,12.80
2023-04-23T06:28:06.038Z,11.90
2023-04-23T06:31:39.750Z,12.60
2023-04-23T06:35:08.139Z,11.90
2023-04-23T06:38:35.719Z,11.00
2023-04-23T06:42:03.036Z,10.60
2023-04-23T06:45:35.445Z,11.00
2023-04-23T06:49:02.329Z,10.20
2023-04-23T06:52:29.539Z,10.60
2023-04-23T06:55:56.306Z,9.00
2023-04-23T06:59:23.158Z,8.50
2023-04-23T07:02:52.620Z,8.50
2023-04-23T07:06:21.345Z,6.30
2023-04-23T07:09:51.251Z,6.60
2023-04-23T07:13:21.104Z,6.90
2023-04-23T07:20:17.058Z,6.10
2023-04-23T07:23:46.752Z,5.50
2023-04-23T07:27:16.368Z,6.00
2023-04-23T07:30:45.765Z,6.80
2023-04-23T07:34:16.577Z,6.00
2023-04-23T07:37:46.559Z,5.70
2023-04-23T07:41:16.289Z,6.10
2023-04-23T07:44:46.431Z,6.20
2023-04-23T07:48:14.521Z,5.50
2023-04-23T07:51:42.616Z,5.90
2023-04-23T07:55:13.217Z,5.80
2023-04-23T07:58:46.861Z,5.80
2023-04-23T08:02:14.741Z,6.30
2023-04-23T08:05:43.530Z,5.80
2023-04-23T08:09:14.639Z,5.30
2023-04-23T08:12:46.248Z,5.60
2023-04-23T08:16:16.177Z,5.90
2023-04-23T08:19:45.510Z,5.50
2023-04-23T08:23:15.785Z,6.30
2023-04-23T08:26:47.462Z,6.50
2023-04-23T08:30:17.911Z,5.20
2023-04-23T08:33:46.210Z,5.10
2023-04-23T08:37:27.055Z,5.10
2023-04-23T08:41:02.093Z,4.80
2023-04-23T08:44:32.929Z,4.80
2023-04-23T08:48:03.282Z,5.10
2023-04-23T08:51:32.677Z,6.00
2023-04-23T08:55:02.985Z,5.40
2023-04-23T08:58:31.148Z,5.80
2023-04-23T09:02:01.056Z,4.70
2023-04-23T09:05:29.388Z,4.80
2023-04-23T09:08:56.570Z,5.20
2023-04-23T09:12:23.951Z,5.40
2023-04-23T09:15:50.922Z,4.50
2023-04-23T09:19:18.897Z,4.50
2023-04-23T09:22:48.631Z,5.00
2023-04-23T09:26:22.979Z,4.80
2023-04-23T09:29:53.199Z,4.70
2023-04-23T09:33:20.732Z,5.20
2023-04-23T09:36:50.354Z,4.70
2023-04-23T09:40:18.290Z,4.80
2023-04-23T09:43:48.685Z,4.50
2023-04-23T09:47:15.869Z,4.50
2023-04-23T09:50:43.303Z,4.30
2023-04-23T09:54:16.410Z,4.60
2023-04-23T09:57:43.754Z,3.70
2023-04-23T10:01:11.869Z,3.90
2023-04-23T10:04:39.917Z,4.10
2023-04-23T10:08:09.265Z,5.80
2023-04-23T10:11:38.208Z,4.60
2023-04-23T10:15:06.896Z,4.60
2023-04-23T10:18:35.774Z,5.10
2023-04-23T10:22:18.379Z,5.20
2023-04-23T10:25:46.941Z,4.80
2023-04-23T10:29:17.359Z,4.70
2023-04-23T10:32:45.238Z,5.10
2023-04-23T10:36:13.251Z,4.30
2023-04-23T10:39:44.504Z,4.00
2023-04-23T10:43:12.004Z,4.00
2023-04-23T10:46:39.800Z,4.50
2023-04-23T10:50:22.567Z,4.00
2023-04-23T10:53:49.794Z,4.20
2023-04-23T10:57:17.163Z,4.00
2023-04-23T11:00:48.566Z,4.10
2023-04-23T11:04:27.808Z,4.50
2023-04-23T11:08:18.880Z,4.10
2023-04-23T11:11:46.986Z,4.00
2023-04-23T11:15:16.164Z,3.60
2023-04-23T11:19:05.290Z,4.50
2023-04-23T11:22:37.467Z,3.90
2023-04-23T11:26:06.226Z,4.20
2023-04-23T11:29:33.356Z,4.30
2023-04-23T11:33:01.379Z,3.60
2023-04-23T11:36:29.997Z,3.40
2023-04-23T11:39:56.766Z,3.50
2023-04-23T11:43:23.745Z,3.30
2023-04-23T11:46:51.223Z,4.40
2023-04-23T11:50:23.114Z,3.50
2023-04-23T11:53:50.818Z,3.70
2023-04-23T11:57:17.769Z,3.50
2023-04-23T12:00:44.915Z,4.20
2023-04-23T12:04:17.798Z,3.70
2023-04-23T12:07:44.899Z,2.80
2023-04-23T12:11:15.274Z,2.70
2023-04-23T12:14:42.501Z,3.30
2023-04-23T12:18:13.207Z,3.70
2023-04-23T12:21:50.371Z,2.80
2023-04-23T12:25:17.393Z,2.90
2023-04-23T12:28:51.355Z,2.70
2023-04-23T12:32:19.205Z,2.80
2023-04-23T12:35:51.434Z,2.60
2023-04-23T12:39:33.971Z,2.90
2023-04-23T12:43:00.886Z,2.70
2023-04-23T12:46:27.778Z,4.00
2023-04-23T12:49:55.774Z,2.90
2023-04-23T12:53:22.907Z,3.00
2023-04-23T12:56:49.783Z,3.10
2023-04-23T13:00:17.900Z,3.10
2023-04-23T13:03:44.936Z,3.00
2023-04-23T13:07:12.051Z,2.90
2023-04-23T13:10:39.628Z,3.10
2023-04-23T13:14:07.091Z,3.10
2023-04-23T13:17:34.158Z,2.60
2023-04-23T13:21:01.015Z,3.70
2023-04-23T13:24:27.968Z,2.60
2023-04-23T13:27:54.829Z,2.90
2023-04-23T13:31:21.915Z,2.80
2023-04-23T13:34:48.957Z,3.10
2023-04-23T13:38:15.979Z,3.00
2023-04-23T13:41:42.990Z,2.90
2023-04-23T13:45:13.513Z,3.10
2023-04-23T13:48:42.404Z,3.00
2023-04-23T13:52:09.869Z,3.30
2023-04-23T13:55:37.230Z,3.60
2023-04-23T13:59:18.712Z,4.10
2023-04-23T14:02:46.916Z,4.30
2023-04-23T14:06:13.901Z,4.50
2023-04-23T14:09:41.209Z,4.70
2023-04-23T14:13:08.397Z,5.00
2023-04-23T14:16:35.641Z,4.90
2023-04-23T14:20:02.583Z,5.20
2023-04-23T14:23:50.535Z,4.90
2023-04-23T14:27:17.658Z,4.30
2023-04-23T14:30:44.693Z,3.80
2023-04-23T14:34:11.745Z,4.20
2023-04-23T14:37:38.715Z,4.20
2023-04-23T14:41:05.977Z,4.60
2023-04-23T14:44:33.028Z,4.10
2023-04-23T14:48:00.450Z,3.70
2023-04-23T14:51:28.125Z,3.90
2023-04-23T14:54:55.957Z,3.90
2023-04-23T14:58:22.910Z,5.00
2023-04-23T15:01:49.894Z,4.00
2023-04-23T15:05:17.157Z,4.30
2023-04-23T15:08:44.286Z,3.90
2023-04-23T15:12:38.490Z,4.20
2023-04-23T15:16:09.609Z,3.90
2023-04-23T15:19:36.511Z,4.10
2023-04-23T15:23:03.324Z,4.70
2023-04-23T15:26:32.748Z,5.10
2023-04-23T15:29:59.746Z,4.70
2023-04-23T15:33:26.522Z,4.80
2023-04-23T15:36:53.370Z,5.40
2023-04-23T15:40:20.835Z,4.60
2023-04-23T15:43:50.452Z,5.10
2023-04-23T15:47:17.531Z,6.20
2023-04-23T15:50:44.821Z,6.30
2023-04-23T15:54:12.035Z,6.10
2023-04-23T15:57:40.255Z,5.70
2023-04-23T16:01:10.475Z,6.20
2023-04-23T16:04:43.013Z,6.20
2023-04-23T16:08:12.288Z,7.00
2023-04-23T16:11:42.070Z,7.80
2023-04-23T16:15:14.174Z,7.80
2023-04-23T16:18:42.297Z,9.00
2023-04-23T16:22:12.415Z,8.80
2023-04-23T16:25:41.760Z,8.60
2023-04-23T16:29:21.516Z,8.50
2023-04-23T16:32:51.677Z,8.10
2023-04-23T16:36:22.881Z,9.00
2023-04-23T16:39:52.290Z,8.50
2023-04-23T16:43:21.958Z,7.90
2023-04-23T16:46:50.016Z,8.30
2023-04-23T16:50:18.300Z,8.40
2023-04-23T16:53:47.585Z,8.40
2023-04-23T16:57:15.711Z,9.10
2023-04-23T17:00:45.075Z,9.60
2023-04-23T17:04:12.899Z,8.20
2023-04-23T17:07:44.283Z,8.70
2023-04-23T17:11:12.846Z,8.60
2023-04-23T17:14:41.904Z,8.70
2023-04-23T17:18:12.507Z,8.30
2023-04-23T17:21:40.543Z,7.80
2023-04-23T17:25:10.913Z,8.30
2023-04-23T17:28:41.314Z,7.30
2023-04-23T17:32:11.126Z,7.70
2023-04-23T17:35:41.002Z,8.00
2023-04-23T17:39:09.861Z,8.50
2023-04-23T17:42:39.779Z,8.80
2023-04-23T17:46:13.710Z,8.10
2023-04-23T17:49:41.452Z,8.00
2023-04-23T17:53:12.411Z,8.90
2023-04-23T17:56:41.252Z,9.30
2023-04-23T18:00:13.905Z,9.20
2023-04-23T18:03:44.413Z,9.20
2023-04-23T18:07:14.621Z,8.50
2023-04-23T18:10:45.316Z,8.60
2023-04-23T18:14:14.109Z,7.80
2023-04-23T18:17:42.406Z,8.20
2023-04-23T18:21:13.423Z,8.80
2023-04-23T18:24:42.208Z,8.70
2023-04-23T18:28:09.478Z,8.70
2023-04-23T18:31:38.128Z,8.40
2023-04-23T18:35:13.364Z,10.00
2023-04-23T18:38:47.279Z,8.50
2023-04-23T18:42:20.417Z,8.30
2023-04-23T18:45:49.637Z,8.50
2023-04-23T18:49:45.762Z,9.20
2023-04-23T18:53:13.140Z,8.30
2023-04-23T18:56:42.622Z,8.40
2023-04-23T19:00:13.900Z,7.50
2023-04-23T19:03:41.932Z,8.70
2023-04-23T19:07:10.568Z,9.60
2023-04-23T19:10:40.293Z,9.60
2023-04-23T19:17:35.711Z,9.10
2023-04-23T19:21:04.494Z,8.90
2023-04-23T19:24:33.503Z,8.50
2023-04-23T19:28:01.239Z,8.90
2023-04-23T19:31:31.782Z,9.40
2023-04-23T19:34:59.575Z,10.30
2023-04-23T19:38:26.562Z,11.50
2023-04-23T19:41:53.797Z,12.00
2023-04-23T19:45:21.140Z,12.30
2023-04-23T19:48:48.237Z,12.60
2023-04-23T19:52:21.503Z,13.50
2023-04-23T19:55:48.485Z,12.80
2023-04-23T19:59:21.233Z,12.50
2023-04-23T20:02:48.524Z,13.20
2023-04-23T20:06:15.781Z,13.50
2023-04-23T20:09:43.432Z,13.40
2023-04-23T20:13:10.514Z,14.90
2023-04-23T20:16:37.692Z,15.50
2023-04-23T20:20:06.670Z,15.60
2023-04-23T20:23:33.792Z,16.10
2023-04-23T20:27:01.670Z,16.90
2023-04-23T20:30:28.516Z,17.60
2023-04-23T20:33:55.890Z,17.70
2023-04-23T20:37:23.198Z,17.80
2023-04-23T20:40:51.959Z,17.80
2023-04-23T20:44:22.581Z,19.70
2023-04-23T20:47:50.305Z,22.40
2023-04-23T20:51:17.486Z,20.50
2023-04-23T20:54:46.442Z,20.00
2023-04-23T20:58:13.426Z,20.50
2023-04-23T21:01:41.395Z,21.20
2023-04-23T21:05:12.778Z,21.80
2023-04-23T21:08:42.490Z,20.70
2023-04-23T21:15:35.682Z,20.90
2023-04-23T21:19:02.693Z,21.60
2023-04-23T21:22:31.378Z,22.90
2023-04-23T21:25:58.541Z,21.70
2023-04-23T21:29:26.514Z,24.40
2023-04-23T21:32:54.232Z,22.60
2023-04-23T21:36:21.347Z,23.40
2023-04-23T21:39:48.106Z,22.60
2023-04-23T21:43:15.509Z,24.60
2023-04-23T21:46:43.253Z,26.10
2023-04-23T21:50:12.539Z,24.10
2023-04-23T21:53:39.433Z,25.30
2023-04-23T21:57:06.474Z,24.10
2023-04-23T22:00:33.967Z,31.00
2023-04-23T22:04:01.795Z,26.90
2023-04-23T22:07:29.577Z,26.70
2023-04-23T22:10:56.553Z,30.20
2023-04-23T22:14:23.489Z,31.60
2023-04-23T22:17:50.965Z,31.30
2023-04-23T22:21:18.211Z,32.30
2023-04-23T22:24:45.090Z,34.60
2023-04-23T22:28:12.471Z,38.10
2023-04-23T22:31:39.726Z,37.80
2023-04-23T22:35:08.690Z,37.90
2023-04-23T22:38:35.619Z,41.30
2023-04-23T22:42:02.894Z,43.50
2023-04-23T22:45:31.334Z,39.90
2023-04-23T22:49:01.308Z,44.30
2023-04-23T22:52:28.820Z,51.20
2023-04-23T22:55:55.982Z,53.60
2023-04-23T22:59:23.434Z,53.30
2023-04-23T23:02:50.394Z,48.50
2023-04-23T23:06:17.813Z,47.20
2023-04-23T23:09:45.102Z,47.40
2023-04-23T23:13:13.413Z,50.60
2023-04-23T23:16:40.667Z,46.10
2023-04-23T23:20:09.846Z,50.20
2023-04-23T23:23:36.861Z,51.20
2023-04-23T23:27:03.845Z,48.00
2023-04-23T23:30:30.814Z,44.10
2023-04-23T23:33:57.732Z,42.00
2023-04-23T23:37:24.619Z,41.80
2023-04-23T23:40:51.731Z,41.30
2023-04-23T23:44:18.600Z,40.60
2023-04-23T23:47:45.550Z,39.90
2023-04-23T23:51:12.859Z,36.40
2023-04-23T23:54:39.806Z,32.90
2023-04-23T23:58:06.626Z,30.50
